»·PEaware :: N1JG KFMN-KGJT

N1JG :: KFMN-KGJT

FLIGHT INFORMATION

Flight Status: Arrived
Operator: Privately registered:
United States
More flights under this callsign
Pilot: Josh G. (4619)
Aircraft: Unknown
(SF50)
More flights by this aircraft type
Origin: KFMN Four Corners Regl
United States
Destination: KGJT Walker
United States
More flights between these airports :: More routes between these airports
Route: +PLATA1 CEZ DVC JNC
File this flight plan on PilotEdge
Remarks:
Altitude:
(Current/Filed)
22,000ft
Speed:
(Current/Filed)
290kts
Departed: 17-Oct-17 06:06 PM
Arrived: 17-Oct-17 06:46 PM
Distance/Time
Traveled:
143nm/0:40
Distance/Time
To Go:
Arrived

Flight Plot

Page will automatically refresh every two minutes.

Flight plan parsing failed; only flown route is shown


Map Options




Map Legend


Flown Route
Filed Route
Departure Airport
Arrival Airport
Navaid (VOR, NDB)
Fix

Horizontal Profiles

Position Reports

Time Latitude Longitude Heading Altitude Ground
Speed
17-Oct-17 17:50 36.737412 -108.236971 333 5479ft 0kts
17-Oct-17 17:51 36.737412 -108.236971 333 5479ft 0kts
17-Oct-17 17:52 36.737412 -108.236971 333 5479ft 0kts
17-Oct-17 17:53 36.737412 -108.236971 333 5479ft 0kts
17-Oct-17 17:54 36.737412 -108.236971 333 5479ft 0kts
17-Oct-17 17:55 36.737412 -108.236971 333 5479ft 0kts
17-Oct-17 17:56 36.737412 -108.236971 333 5479ft 0kts
17-Oct-17 17:57 36.737412 -108.236971 333 5479ft 0kts
17-Oct-17 17:58 36.737412 -108.236971 333 5479ft 0kts
17-Oct-17 17:59 36.737412 -108.236971 333 5479ft 0kts
17-Oct-17 18:00 36.737412 -108.236971 333 5479ft 0kts
17-Oct-17 18:01 36.737412 -108.236971 333 5479ft 0kts
17-Oct-17 18:02 36.737412 -108.236971 333 5479ft 0kts
17-Oct-17 18:03 36.737412 -108.236971 333 5479ft 0kts
17-Oct-17 18:04 36.737412 -108.236971 333 5479ft 0kts
17-Oct-17 18:05 36.737412 -108.236971 333 5479ft 0kts
17-Oct-17 18:06 36.738313 -108.236669 23 5485ft 12kts
17-Oct-17 18:07 36.740529 -108.229686 87 5495ft 27kts
17-Oct-17 18:08 36.740743 -108.221656 86 5505ft 19kts
17-Oct-17 18:09 36.740824 -108.218837 79 5503ft 0kts
17-Oct-17 18:10 36.740842 -108.218175 81 5498ft 11kts
17-Oct-17 18:11 36.741447 -108.224769 268 5504ft 91kts
17-Oct-17 18:12 36.752253 -108.255059 10 6735ft 130kts
17-Oct-17 18:13 36.793090 -108.243343 4 7992ft 182kts
17-Oct-17 18:14 36.844422 -108.236498 7 10063ft 196kts
17-Oct-17 18:15 36.902061 -108.225070 8 11874ft 215kts
17-Oct-17 18:16 36.956834 -108.248886 329 13734ft 218kts
17-Oct-17 18:17 37.009948 -108.286310 326 15519ft 220kts
17-Oct-17 18:18 37.063808 -108.325228 326 17423ft 208kts
17-Oct-17 18:19 37.111541 -108.359822 328 18869ft 209kts
17-Oct-17 18:20 37.161969 -108.396231 327 20197ft 212kts
17-Oct-17 18:21 37.213193 -108.433321 326 21460ft 214kts
17-Oct-17 18:22 37.265276 -108.471140 326 22292ft 231kts
17-Oct-17 18:23 37.325321 -108.514796 327 22294ft 265kts
17-Oct-17 18:24 37.391092 -108.563096 322 22286ft 280kts
17-Oct-17 18:25 37.455890 -108.619679 322 22289ft 288kts
17-Oct-17 18:26 37.519448 -108.675522 322 22294ft 292kts
17-Oct-17 18:27 37.586141 -108.734257 322 22293ft 294kts
17-Oct-17 18:28 37.652828 -108.793119 322 22319ft 294kts
17-Oct-17 18:29 37.719626 -108.852218 322 22318ft 295kts
17-Oct-17 18:30 37.786489 -108.911502 322 22318ft 295kts
17-Oct-17 18:31 37.868140 -108.924304 358 22318ft 310kts
17-Oct-17 18:32 37.953856 -108.915404 359 22317ft 311kts
17-Oct-17 18:33 38.039369 -108.906049 359 22316ft 311kts
17-Oct-17 18:34 38.118333 -108.897387 359 22320ft 310kts
17-Oct-17 18:35 38.195720 -108.888868 359 22320ft 311kts
17-Oct-17 18:36 38.281013 -108.879462 359 22320ft 311kts
17-Oct-17 18:37 38.367639 -108.869917 359 21704ft 322kts
17-Oct-17 18:38 38.455598 -108.860165 0 20217ft 315kts
17-Oct-17 18:39 38.541862 -108.850586 1 18724ft 310kts
17-Oct-17 18:40 38.627223 -108.841070 1 17225ft 308kts
17-Oct-17 18:41 38.712055 -108.831593 1 15729ft 308kts
17-Oct-17 18:42 38.789762 -108.802740 39 15238ft 294kts
17-Oct-17 18:43 38.851490 -108.737931 39 15236ft 283kts
17-Oct-17 18:44 38.911746 -108.673692 48 14116ft 280kts
17-Oct-17 18:45 38.960290 -108.601174 49 12277ft 248kts
17-Oct-17 18:46 38.997911 -108.545073 49 11802ft 191kts
17-Oct-17 18:47 39.034942 -108.494303 41 9576ft 194kts
17-Oct-17 18:48 39.070718 -108.456010 25 8377ft 115kts
17-Oct-17 18:49 39.095447 -108.472604 306 6488ft 109kts
17-Oct-17 18:50 39.111012 -108.500885 305 5103ft 92kts
17-Oct-17 18:51 39.123020 -108.522684 289 4804ft 17kts
17-Oct-17 18:52 39.121466 -108.522784 214 4804ft 11kts
17-Oct-17 18:53 39.120746 -108.523037 29 4804ft 0kts
17-Oct-17 18:54 39.120746 -108.523037 29 4804ft 0kts
17-Oct-17 18:55 39.120746 -108.523037 29 4804ft 0kts
17-Oct-17 18:56 39.120746 -108.523037 29 4804ft 0kts
17-Oct-17 18:57 39.120746 -108.523037 29 4804ft 0kts
17-Oct-17 18:58 39.120746 -108.523037 29 4804ft 0kts
17-Oct-17 18:59 39.120746 -108.523037 29 4804ft 0kts
17-Oct-17 19:00 39.120746 -108.523037 29 4804ft 0kts
17-Oct-17 19:01 39.120746 -108.523037 29 4804ft 0kts

Navigation Log

Ident Type
Flight plan parsing failed, navigation log unavailable